San Juan, PR

1:23 AM AST on September 21, 2014 (GMT -0400)
Condado, Calle Earle, At The Ocean | Change Station
CLOSE
Current Station
Personal Weather Station
Location: San Juan, SAN JUAN
Elevation: 10 ft
Nearby Weather Stations

Elev 10 ft 18.46 °N, 66.07 °W | Updated 4 seconds ago

Scattered Clouds
Scattered Clouds
81.6 °F
Feels Like 88 °F
N
0.0
Wind Variable Wind from West
Gusts 0.0 mph

Today
High -- | Low -- °F
--% Chance of Precip.
Yesterday
High -- | Low -- °F
Precip. -- in
6:13 AM 6:21 PM
Waning Crescent, 8% visible
Pressure 29.99 in
Visibility 10.0 miles
Clouds Few 2200 ft
Scattered Clouds 5000 ft
Heat Index 88 °F
Dew Point 75 °F
Humidity 81%
Rainfall 1.12 in
Snow Depth Not available.
UV 0 out of 12
Pollen Not available.
Air Quality Not available.
Flu Activity Not available.
METAR TJSJ 210456Z 00000KT 10SM FEW022 SCT050 27/24 A2999 RMK AO2 SLP155 T02720239 $

More Conditions Fewer Conditions

Pressure 29.99 in
Visibility 10.0 miles
Clouds Few 2200 ft
Scattered Clouds 5000 ft
Heat Index 88 °F
Dew Point 75 °F
Humidity 81%
Rainfall 1.12 in
Snow Depth Not available.
UV 0 out of 12
Pollen Not available.
Air Quality Not available.
Flu Activity Not available.
METAR TJSJ 210456Z 00000KT 10SM FEW022 SCT050 27/24 A2999 RMK AO2 SLP155 T02720239 $

More Conditions Fewer Conditions

10-Day Weather Forecast

Almanac

Astronomy

Sep. 21, 2014 Rise Set
Actual Time 6:13 AM AST 6:21 PM AST
Civil Twilight 5:51 AM AST 6:43 PM AST
Nautical Twilight 5:26 AM AST 7:08 PM AST
Astronomical Twilight 5:00 AM AST 7:34 PM AST
Moon 3:59 AM AST 4:42 PM AST
Length of Visible Light 12h 51m
Length of Day
12h 08m
Tomorrow will be 1m 2s shorter.
Waning Crescent, 8% of the Moon is Illuminated
Today
Waning Crescent
Sep 24
New
Oct 1
First Quarter
Oct 8
Full
Oct 15
Last Quarter

Community

WunderPhotos

Upload Photos

1,755,090 photos uploaded!

Nearby

Snow Depth

Station Depth Elevation
No new snow has been reported.

Earthquake Activity

City Distance Mag. Time & Date
No recent earthquake activity has been reported nearby.
Minimum magnitude displayed is 2.5.

Coastal Water Temperatures

Place Temperature
San Juan, PR 84.9 °F
Mayaguez, PR 84.0 °F
Esperanza, PR 84.9 °F

Nearby Weather Stations